createdAt,value
2023-04-02T00:00:18.031Z,10.90
2023-04-02T00:02:21.406Z,10.99
2023-04-02T00:04:23.914Z,10.91
2023-04-02T00:06:37.961Z,10.88
2023-04-02T00:08:41.639Z,10.88
2023-04-02T00:10:51.120Z,10.86
2023-04-02T00:13:13.170Z,10.89
2023-04-02T00:15:15.218Z,10.98
2023-04-02T00:17:17.828Z,10.88
2023-04-02T00:19:35.110Z,10.89
2023-04-02T00:21:42.638Z,10.94
2023-04-02T00:23:45.024Z,10.91
2023-04-02T00:25:47.506Z,10.90
2023-04-02T00:27:49.841Z,10.94
2023-04-02T00:29:55.520Z,10.93
2023-04-02T00:32:00.143Z,10.86
2023-04-02T00:34:04.932Z,10.74
2023-04-02T00:36:09.008Z,10.81
2023-04-02T00:38:20.506Z,10.83
2023-04-02T00:40:26.902Z,10.88
2023-04-02T00:42:34.388Z,10.82
2023-04-02T00:44:44.305Z,10.73
2023-04-02T00:46:49.756Z,10.76
2023-04-02T00:49:02.961Z,10.81
2023-04-02T00:51:17.984Z,10.74
2023-04-02T00:53:27.574Z,10.89
2023-04-02T00:55:41.885Z,10.82
2023-04-02T00:57:45.466Z,10.87
2023-04-02T00:59:56.261Z,10.85
2023-04-02T01:02:02.901Z,10.85
2023-04-02T01:04:06.291Z,10.70
2023-04-02T01:06:11.786Z,10.73
2023-04-02T01:08:21.063Z,10.76
2023-04-02T01:10:33.167Z,10.78
2023-04-02T01:12:48.747Z,10.74
2023-04-02T01:15:10.448Z,10.73
2023-04-02T01:17:30.687Z,10.74
2023-04-02T01:19:45.620Z,10.75
2023-04-02T01:22:02.761Z,10.76
2023-04-02T01:24:07.709Z,10.70
2023-04-02T01:26:31.188Z,10.69
2023-04-02T01:28:52.967Z,10.56
2023-04-02T01:30:57.532Z,10.58
2023-04-02T01:32:59.994Z,10.55
2023-04-02T01:35:02.163Z,10.57
2023-04-02T01:37:23.180Z,10.55
2023-04-02T01:39:31.508Z,10.66
2023-04-02T01:41:40.529Z,10.66
2023-04-02T01:43:43.722Z,10.64
2023-04-02T01:45:45.667Z,10.70
2023-04-02T01:47:48.536Z,10.75
2023-04-02T01:49:57.008Z,10.73
2023-04-02T01:51:59.984Z,10.74
2023-04-02T01:54:04.379Z,10.77
2023-04-02T01:56:07.584Z,10.76
2023-04-02T01:58:11.713Z,10.56
2023-04-02T02:00:19.646Z,10.70
2023-04-02T02:02:22.162Z,10.73
2023-04-02T02:04:24.220Z,10.77
2023-04-02T02:06:26.085Z,10.77
2023-04-02T02:08:38.133Z,10.68
2023-04-02T02:10:40.068Z,10.83
2023-04-02T02:12:44.488Z,10.57
2023-04-02T02:14:52.306Z,10.64
2023-04-02T02:16:58.224Z,10.63
2023-04-02T02:19:03.233Z,10.66
2023-04-02T02:21:08.388Z,10.72
2023-04-02T02:23:12.364Z,10.72
2023-04-02T02:25:17.659Z,10.63
2023-04-02T02:27:22.767Z,10.58
2023-04-02T02:29:26.491Z,10.70
2023-04-02T02:31:33.530Z,10.76
2023-04-02T02:33:42.214Z,10.80
2023-04-02T02:35:52.983Z,10.83
2023-04-02T02:38:06.401Z,10.83
2023-04-02T02:40:16.622Z,10.79
2023-04-02T02:42:27.377Z,10.64
2023-04-02T02:44:30.143Z,10.82
2023-04-02T02:46:34.049Z,10.76
2023-04-02T02:48:39.509Z,10.73
2023-04-02T02:50:42.603Z,10.72
2023-04-02T02:52:50.592Z,10.67
2023-04-02T02:54:57.659Z,10.73
2023-04-02T02:57:04.244Z,10.77
2023-04-02T02:59:08.707Z,10.77
2023-04-02T03:01:10.741Z,10.66
2023-04-02T03:03:24.787Z,10.67
2023-04-02T03:05:29.265Z,10.66
2023-04-02T03:07:32.111Z,10.49
2023-04-02T03:09:41.887Z,10.58
2023-04-02T03:12:02.185Z,10.61
2023-04-02T03:14:17.406Z,10.60
2023-04-02T03:16:27.554Z,10.55
2023-04-02T03:18:30.843Z,10.59
2023-04-02T03:20:34.070Z,10.63
2023-04-02T03:22:41.577Z,10.53
2023-04-02T03:25:00.202Z,10.64
2023-04-02T03:27:05.834Z,10.63
2023-04-02T03:29:14.297Z,10.68
2023-04-02T03:31:31.617Z,10.62
2023-04-02T03:33:40.364Z,10.56
2023-04-02T03:35:49.886Z,10.48
2023-04-02T03:38:03.752Z,10.47
2023-04-02T03:40:10.649Z,10.54
2023-04-02T03:42:18.807Z,10.55
2023-04-02T03:44:28.239Z,10.55
2023-04-02T03:46:42.083Z,10.51
2023-04-02T03:48:49.657Z,10.52
2023-04-02T03:50:59.827Z,10.52
2023-04-02T03:53:03.664Z,10.42
2023-04-02T03:55:16.349Z,10.56
2023-04-02T03:57:36.618Z,10.57
2023-04-02T03:59:47.397Z,10.48
2023-04-02T04:02:01.044Z,10.56
2023-04-02T04:04:10.709Z,10.65
2023-04-02T04:06:32.398Z,10.62
2023-04-02T04:08:44.042Z,10.60
2023-04-02T04:10:56.577Z,10.41
2023-04-02T04:13:12.576Z,10.46
2023-04-02T04:15:30.379Z,10.52
2023-04-02T04:17:54.108Z,10.36
2023-04-02T04:20:08.698Z,10.44
2023-04-02T04:22:30.465Z,10.52
2023-04-02T04:24:39.328Z,10.53
2023-04-02T04:27:03.962Z,10.48
2023-04-02T04:29:14.702Z,10.51
2023-04-02T04:31:25.315Z,10.51
2023-04-02T04:33:34.757Z,10.48
2023-04-02T04:35:43.852Z,10.46
2023-04-02T04:37:49.843Z,10.47
2023-04-02T04:40:00.868Z,10.56
2023-04-02T04:42:05.773Z,10.45
2023-04-02T04:44:18.260Z,10.53
2023-04-02T04:46:30.180Z,10.53
2023-04-02T04:48:46.380Z,10.49
2023-04-02T04:50:55.439Z,10.46
2023-04-02T04:52:57.183Z,10.50
2023-04-02T04:54:59.038Z,10.47
2023-04-02T04:57:03.764Z,10.51
2023-04-02T04:59:12.973Z,10.48
2023-04-02T05:01:17.835Z,10.48
2023-04-02T05:03:29.870Z,10.33
2023-04-02T05:05:37.347Z,10.24
2023-04-02T05:07:49.543Z,10.40
2023-04-02T05:09:58.668Z,10.31
2023-04-02T05:12:05.618Z,10.38
2023-04-02T05:14:18.650Z,10.43
2023-04-02T05:16:39.882Z,10.43
2023-04-02T05:18:47.589Z,10.41
2023-04-02T05:21:08.873Z,10.37
2023-04-02T05:23:15.524Z,10.26
2023-04-02T05:25:25.219Z,10.26
2023-04-02T05:27:33.851Z,10.37
2023-04-02T05:29:41.841Z,10.34
2023-04-02T05:31:51.153Z,10.33
2023-04-02T05:33:54.583Z,10.35
2023-04-02T05:36:01.632Z,10.35
2023-04-02T05:38:04.868Z,10.34
2023-04-02T05:40:15.948Z,10.40
2023-04-02T05:42:27.386Z,10.37
2023-04-02T05:44:32.488Z,10.35
2023-04-02T05:46:41.696Z,10.21
2023-04-02T05:48:46.498Z,10.17
2023-04-02T05:50:52.953Z,10.19
2023-04-02T05:53:02.385Z,10.22
2023-04-02T05:55:05.575Z,10.11
2023-04-02T05:57:15.180Z,10.17
2023-04-02T05:59:30.039Z,10.18
2023-04-02T06:01:47.405Z,10.23
2023-04-02T06:04:05.711Z,10.26
2023-04-02T06:06:21.119Z,10.16
2023-04-02T06:08:31.559Z,10.25
2023-04-02T06:10:43.989Z,10.22
2023-04-02T06:12:54.114Z,10.20
2023-04-02T06:14:59.262Z,10.20
2023-04-02T06:17:01.231Z,10.15
2023-04-02T06:19:10.574Z,10.09
2023-04-02T06:21:17.620Z,10.16
2023-04-02T06:23:25.866Z,10.08
2023-04-02T06:25:34.202Z,9.92
2023-04-02T06:27:39.474Z,10.02
2023-04-02T06:29:45.166Z,9.96
2023-04-02T06:31:53.110Z,10.04
2023-04-02T06:33:56.525Z,10.00
2023-04-02T06:36:00.964Z,10.09
2023-04-02T06:38:05.902Z,10.07
2023-04-02T06:40:18.990Z,10.16
2023-04-02T06:42:26.717Z,10.13
2023-04-02T06:44:34.091Z,10.08
2023-04-02T06:46:50.024Z,10.07
2023-04-02T06:49:01.744Z,9.87
2023-04-02T06:51:08.809Z,9.99
2023-04-02T06:53:23.592Z,10.01
2023-04-02T06:55:45.222Z,10.09
2023-04-02T06:57:47.817Z,10.14
2023-04-02T06:59:49.792Z,10.15
2023-04-02T07:01:57.518Z,10.03
2023-04-02T07:03:59.949Z,10.07
2023-04-02T07:06:03.575Z,10.11
2023-04-02T07:08:05.912Z,10.10
2023-04-02T07:10:09.429Z,10.13
2023-04-02T07:12:12.838Z,10.18
2023-04-02T07:14:15.174Z,10.18
2023-04-02T07:16:20.825Z,10.10
2023-04-02T07:18:25.201Z,10.22
2023-04-02T07:20:31.676Z,10.21
2023-04-02T07:22:33.537Z,10.17
2023-04-02T07:24:35.349Z,10.06
2023-04-02T07:26:38.962Z,10.11
2023-04-02T07:28:41.028Z,9.95
2023-04-02T07:30:43.741Z,10.09
2023-04-02T07:32:46.060Z,10.00
2023-04-02T07:34:49.061Z,9.94
2023-04-02T07:36:51.579Z,10.19
2023-04-02T07:38:53.981Z,10.10
2023-04-02T07:40:55.982Z,10.13
2023-04-02T07:42:57.923Z,10.18
2023-04-02T07:44:59.771Z,10.30
2023-04-02T07:47:01.954Z,10.28
2023-04-02T07:49:03.990Z,10.25
2023-04-02T07:51:06.230Z,10.26
2023-04-02T07:53:08.987Z,10.28
2023-04-02T07:55:12.862Z,10.24
2023-04-02T07:57:14.882Z,10.38
2023-04-02T07:59:16.795Z,10.31
2023-04-02T08:01:24.578Z,10.39
2023-04-02T08:03:27.132Z,10.37
2023-04-02T08:05:29.008Z,10.37
2023-04-02T08:07:31.063Z,10.38
2023-04-02T08:09:32.951Z,10.32
2023-04-02T08:11:34.941Z,10.32
2023-04-02T08:13:37.424Z,10.35
2023-04-02T08:15:39.966Z,10.40
2023-04-02T08:17:43.355Z,10.44
2023-04-02T08:19:54.674Z,10.40
2023-04-02T08:21:57.351Z,10.38
2023-04-02T08:23:59.245Z,10.33
2023-04-02T08:26:04.003Z,10.40
2023-04-02T08:28:05.943Z,10.45
2023-04-02T08:30:09.174Z,10.24
2023-04-02T08:32:15.954Z,10.41
2023-04-02T08:34:17.945Z,10.39
2023-04-02T08:36:20.505Z,10.45
2023-04-02T08:38:26.053Z,10.39
2023-04-02T08:40:38.901Z,10.41
2023-04-02T08:42:49.722Z,10.37
2023-04-02T08:45:02.358Z,10.39
2023-04-02T08:47:08.617Z,10.38
2023-04-02T08:49:32.613Z,10.38
2023-04-02T08:51:36.976Z,10.38
2023-04-02T08:53:41.987Z,10.26
2023-04-02T08:56:06.012Z,10.41
2023-04-02T08:58:18.569Z,10.32
2023-04-02T09:00:20.962Z,10.45
2023-04-02T09:02:42.021Z,10.47
2023-04-02T09:04:44.130Z,10.52
2023-04-02T09:06:46.567Z,10.59
2023-04-02T09:08:50.964Z,10.58
2023-04-02T09:11:06.311Z,10.54
2023-04-02T09:13:20.780Z,10.66
2023-04-02T09:15:29.535Z,10.74
2023-04-02T09:17:39.689Z,10.67
2023-04-02T09:20:01.313Z,10.75
2023-04-02T09:22:04.591Z,10.77
2023-04-02T09:24:07.116Z,10.84
2023-04-02T09:26:22.324Z,10.95
2023-04-02T09:28:24.694Z,10.98
2023-04-02T09:30:43.977Z,11.06
2023-04-02T09:32:56.177Z,11.04
2023-04-02T09:35:18.455Z,10.98
2023-04-02T09:37:30.520Z,11.02
2023-04-02T09:39:32.432Z,11.04
2023-04-02T09:41:37.165Z,11.02
2023-04-02T09:43:39.627Z,11.07
2023-04-02T09:45:43.375Z,11.06
2023-04-02T09:47:45.721Z,11.14
2023-04-02T09:49:47.675Z,11.23
2023-04-02T09:52:09.274Z,11.26
2023-04-02T09:54:16.676Z,11.13
2023-04-02T09:56:22.036Z,11.22
2023-04-02T09:58:23.965Z,11.12
2023-04-02T10:00:31.913Z,11.27
2023-04-02T10:02:34.626Z,11.27
2023-04-02T10:04:39.501Z,11.38
2023-04-02T10:06:49.718Z,11.38
2023-04-02T10:08:52.037Z,11.34
2023-04-02T10:10:57.887Z,11.26
2023-04-02T10:13:02.204Z,11.39
2023-04-02T10:15:08.805Z,11.35
2023-04-02T10:17:24.679Z,11.32
2023-04-02T10:19:41.054Z,11.40
2023-04-02T10:21:44.554Z,11.25
2023-04-02T10:23:46.464Z,11.31
2023-04-02T10:26:01.899Z,11.35
2023-04-02T10:28:22.035Z,11.31
2023-04-02T10:30:34.308Z,11.47
2023-04-02T10:32:45.706Z,11.43
2023-04-02T10:35:03.718Z,11.45
2023-04-02T10:37:13.859Z,11.49
2023-04-02T10:39:25.799Z,11.42
2023-04-02T10:41:49.846Z,11.49
2023-04-02T10:44:09.498Z,11.48
2023-04-02T10:46:28.172Z,11.54
2023-04-02T10:48:33.551Z,11.63
2023-04-02T10:50:51.912Z,11.68
2023-04-02T10:53:05.866Z,11.69
2023-04-02T10:55:18.865Z,11.84
2023-04-02T10:57:27.010Z,11.90
2023-04-02T10:59:34.229Z,11.97
2023-04-02T11:01:37.922Z,11.93
2023-04-02T11:03:47.002Z,11.96
2023-04-02T11:05:51.584Z,12.03
2023-04-02T11:07:59.487Z,12.10
2023-04-02T11:10:02.195Z,12.05
2023-04-02T11:12:07.095Z,12.17
2023-04-02T11:14:17.368Z,12.21
2023-04-02T11:16:19.755Z,12.20
2023-04-02T11:18:26.433Z,12.22
2023-04-02T11:20:48.065Z,12.20
2023-04-02T11:23:10.537Z,12.19
2023-04-02T11:25:23.049Z,12.24
2023-04-02T11:27:30.857Z,12.27
2023-04-02T11:29:34.836Z,12.41
2023-04-02T11:31:37.134Z,12.32
2023-04-02T11:33:44.254Z,12.35
2023-04-02T11:35:47.693Z,12.35
2023-04-02T11:37:49.961Z,12.28
2023-04-02T11:39:55.404Z,12.41
2023-04-02T11:42:01.381Z,12.32
2023-04-02T11:44:03.469Z,12.26
2023-04-02T11:46:34.802Z,12.27
2023-04-02T11:48:37.153Z,12.27
2023-04-02T11:50:41.640Z,12.33
2023-04-02T11:52:47.232Z,12.28
2023-04-02T11:54:59.112Z,12.36
2023-04-02T11:57:21.046Z,12.27
2023-04-02T11:59:39.929Z,12.34
2023-04-02T12:02:01.346Z,12.38
2023-04-02T12:04:05.726Z,12.46
2023-04-02T12:06:25.794Z,12.31
2023-04-02T12:08:54.292Z,12.45
2023-04-02T12:11:01.567Z,12.55
2023-04-02T12:13:03.590Z,12.52
2023-04-02T12:15:27.828Z,12.58
2023-04-02T12:17:34.392Z,12.62
2023-04-02T12:19:36.652Z,12.66
2023-04-02T12:21:39.144Z,12.69
2023-04-02T12:23:41.604Z,12.81
2023-04-02T12:25:52.119Z,12.90
2023-04-02T12:28:03.995Z,12.86
2023-04-02T12:30:21.063Z,12.91
2023-04-02T12:32:29.932Z,13.12
2023-04-02T12:34:32.199Z,13.11
2023-04-02T12:36:34.873Z,13.28
2023-04-02T12:38:46.078Z,13.41
2023-04-02T12:40:59.611Z,13.64
2023-04-02T12:43:01.598Z,13.81
2023-04-02T12:45:07.036Z,13.75
2023-04-02T12:47:13.620Z,13.71
2023-04-02T12:49:35.058Z,13.68
2023-04-02T12:51:37.822Z,13.81
2023-04-02T12:53:41.423Z,13.81
2023-04-02T12:55:47.682Z,13.73
2023-04-02T12:57:54.972Z,13.66
2023-04-02T13:00:00.164Z,13.69
2023-04-02T13:02:18.765Z,13.86
2023-04-02T13:04:22.384Z,13.92
2023-04-02T13:06:27.345Z,14.08
2023-04-02T13:08:33.351Z,14.21
2023-04-02T13:10:35.809Z,14.22
2023-04-02T13:12:40.986Z,14.32
2023-04-02T13:14:43.165Z,14.40
2023-04-02T13:16:45.089Z,14.51
2023-04-02T13:18:48.904Z,14.58
2023-04-02T13:21:03.065Z,14.80
2023-04-02T13:23:26.135Z,14.90
2023-04-02T13:25:32.362Z,15.11
2023-04-02T13:27:34.275Z,15.10
2023-04-02T13:29:36.858Z,15.17
2023-04-02T13:31:38.812Z,15.13
2023-04-02T13:33:40.799Z,15.22
2023-04-02T13:35:43.634Z,15.19
2023-04-02T13:37:45.585Z,15.03
2023-04-02T13:39:47.724Z,15.14
2023-04-02T13:41:55.646Z,15.27
2023-04-02T13:44:01.511Z,15.28
2023-04-02T13:46:06.996Z,15.39
2023-04-02T13:48:14.912Z,15.45
2023-04-02T13:50:20.431Z,15.46
2023-04-02T13:52:22.388Z,15.52
2023-04-02T13:54:29.715Z,15.68
2023-04-02T13:56:32.385Z,15.72
2023-04-02T13:58:34.627Z,15.85
2023-04-02T14:00:38.173Z,15.96
2023-04-02T14:02:44.893Z,15.85
2023-04-02T14:04:55.760Z,15.63
2023-04-02T14:07:05.171Z,15.54
2023-04-02T14:09:18.135Z,15.48
2023-04-02T14:11:26.224Z,15.41
2023-04-02T14:13:31.730Z,15.55
2023-04-02T14:15:40.710Z,15.68
2023-04-02T14:18:01.644Z,15.83
2023-04-02T14:20:20.028Z,16.04
2023-04-02T14:22:43.540Z,16.24
2023-04-02T14:25:01.091Z,16.28
2023-04-02T14:27:16.689Z,16.40
2023-04-02T14:29:26.003Z,16.02
2023-04-02T14:31:44.720Z,16.12
2023-04-02T14:33:56.554Z,15.70
2023-04-02T14:36:15.174Z,15.77
2023-04-02T14:38:35.940Z,15.84
2023-04-02T14:40:49.603Z,15.92
2023-04-02T14:42:54.676Z,15.84
2023-04-02T14:45:05.266Z,16.04
2023-04-02T14:47:17.360Z,16.12
2023-04-02T14:49:24.964Z,16.46
2023-04-02T14:51:35.076Z,16.71
2023-04-02T14:53:49.677Z,17.00
2023-04-02T14:55:53.117Z,17.17
2023-04-02T14:57:55.646Z,17.37
2023-04-02T15:00:06.447Z,17.50
2023-04-02T15:02:14.374Z,17.42
2023-04-02T15:04:27.956Z,17.33
2023-04-02T15:06:36.258Z,16.95
2023-04-02T15:08:58.621Z,17.01
2023-04-02T15:11:16.662Z,17.05
2023-04-02T15:13:23.277Z,17.25
2023-04-02T15:15:40.821Z,17.30
2023-04-02T15:17:43.295Z,17.56
2023-04-02T15:19:45.569Z,17.65
2023-04-02T15:22:09.494Z,17.87
2023-04-02T15:24:15.048Z,18.09
2023-04-02T15:26:31.046Z,18.26
2023-04-02T15:28:44.811Z,18.39
2023-04-02T15:30:53.105Z,18.63
2023-04-02T15:33:00.010Z,18.39
2023-04-02T15:35:21.247Z,18.15
2023-04-02T15:37:27.457Z,18.15
2023-04-02T15:39:39.302Z,18.28
2023-04-02T15:41:49.357Z,18.27
2023-04-02T15:44:11.143Z,18.31
2023-04-02T15:46:28.430Z,18.35
2023-04-02T15:48:32.124Z,18.50
2023-04-02T15:50:43.928Z,18.41
2023-04-02T15:53:03.417Z,18.45
2023-04-02T15:55:15.105Z,18.34
2023-04-02T15:57:36.713Z,17.99
2023-04-02T15:59:49.070Z,18.05
2023-04-02T16:02:11.604Z,17.89
2023-04-02T16:04:27.623Z,17.79
2023-04-02T16:06:40.063Z,17.79
2023-04-02T16:09:02.558Z,17.59
2023-04-02T16:11:13.970Z,17.57
2023-04-02T16:13:32.401Z,17.33
2023-04-02T16:15:40.696Z,17.30
2023-04-02T16:17:47.194Z,17.32
2023-04-02T16:19:53.233Z,17.35
2023-04-02T16:21:56.499Z,17.16
2023-04-02T16:23:58.642Z,17.37
2023-04-02T16:26:16.999Z,17.47
2023-04-02T16:28:28.562Z,17.55
2023-04-02T16:30:31.885Z,17.51
2023-04-02T16:32:52.901Z,17.47
2023-04-02T16:37:29.936Z,17.03
2023-04-02T16:39:44.807Z,16.98
2023-04-02T16:42:02.942Z,16.60
2023-04-02T16:44:14.598Z,16.32
2023-04-02T16:46:38.814Z,16.50
2023-04-02T16:48:56.001Z,16.29
2023-04-02T16:51:17.929Z,16.27
2023-04-02T16:53:35.970Z,16.30
2023-04-02T16:55:39.336Z,16.12
2023-04-02T16:57:44.979Z,15.95
2023-04-02T16:59:58.528Z,16.10
2023-04-02T17:02:28.705Z,15.76
2023-04-02T17:04:52.527Z,15.73
2023-04-02T17:07:04.817Z,15.67
2023-04-02T17:09:14.504Z,15.70
2023-04-02T17:11:26.059Z,15.56
2023-04-02T17:13:41.273Z,15.61
2023-04-02T17:15:48.837Z,15.54
2023-04-02T17:17:51.107Z,15.35
2023-04-02T17:19:57.581Z,15.41
2023-04-02T17:22:05.170Z,15.40
2023-04-02T17:24:08.668Z,15.29
2023-04-02T17:26:13.684Z,15.28
2023-04-02T17:28:19.749Z,15.08
2023-04-02T17:30:35.258Z,15.10
2023-04-02T17:32:37.391Z,14.99
2023-04-02T17:34:39.388Z,14.91
2023-04-02T17:36:55.699Z,14.90
2023-04-02T17:39:12.829Z,14.88
2023-04-02T17:41:23.607Z,14.73
2023-04-02T17:43:35.351Z,14.74
2023-04-02T17:45:50.276Z,14.71
2023-04-02T17:48:04.920Z,14.60
2023-04-02T17:50:29.832Z,14.57
2023-04-02T17:52:41.577Z,14.58
2023-04-02T17:55:03.499Z,14.52
2023-04-02T17:57:11.968Z,14.33
2023-04-02T17:59:26.493Z,14.26
2023-04-02T18:01:49.753Z,14.20
2023-04-02T18:04:10.971Z,14.23
2023-04-02T18:06:27.338Z,14.02
2023-04-02T18:08:36.538Z,14.07
2023-04-02T18:10:51.793Z,13.88
2023-04-02T18:13:06.193Z,13.99
2023-04-02T18:15:31.175Z,13.83
2023-04-02T18:17:43.022Z,13.74
2023-04-02T18:19:54.475Z,13.74
2023-04-02T18:22:12.891Z,13.70
2023-04-02T18:24:29.080Z,13.53
2023-04-02T18:26:38.647Z,13.49
2023-04-02T18:29:00.342Z,13.44
2023-04-02T18:31:17.338Z,13.49
2023-04-02T18:33:38.974Z,13.47
2023-04-02T18:36:01.365Z,13.19
2023-04-02T18:38:22.881Z,13.27
2023-04-02T18:40:40.221Z,13.10
2023-04-02T18:42:43.681Z,13.11
2023-04-02T18:44:56.175Z,13.13
2023-04-02T18:47:17.989Z,12.71
2023-04-02T18:49:21.824Z,12.98
2023-04-02T18:51:27.388Z,12.98
2023-04-02T18:53:32.232Z,12.94
2023-04-02T18:55:34.614Z,12.94
2023-04-02T18:57:40.320Z,12.90
2023-04-02T18:59:44.425Z,12.83
2023-04-02T19:01:51.502Z,12.84
2023-04-02T19:04:00.990Z,12.69
2023-04-02T19:06:10.105Z,12.74
2023-04-02T19:08:22.393Z,12.69
2023-04-02T19:10:31.343Z,12.65
2023-04-02T19:12:34.344Z,12.67
2023-04-02T19:14:36.975Z,12.58
2023-04-02T19:16:47.065Z,12.58
2023-04-02T19:19:11.929Z,12.59
2023-04-02T19:21:33.790Z,12.59
2023-04-02T19:23:48.320Z,12.51
2023-04-02T19:26:01.481Z,12.50
2023-04-02T19:28:06.952Z,12.48
2023-04-02T19:30:34.294Z,12.38
2023-04-02T19:32:48.959Z,12.31
2023-04-02T19:35:16.335Z,12.25
2023-04-02T19:37:34.897Z,12.26
2023-04-02T19:39:47.036Z,12.19
2023-04-02T19:41:53.613Z,12.17
2023-04-02T19:43:56.264Z,12.12
2023-04-02T19:45:58.632Z,12.17
2023-04-02T19:48:09.231Z,12.06
2023-04-02T19:50:11.521Z,12.14
2023-04-02T19:52:13.605Z,12.01
2023-04-02T19:54:18.699Z,12.10
2023-04-02T19:56:22.073Z,11.92
2023-04-02T19:58:27.823Z,11.93
2023-04-02T20:00:30.047Z,11.94
2023-04-02T20:02:31.979Z,11.83
2023-04-02T20:04:34.207Z,11.84
2023-04-02T20:06:36.602Z,11.81
2023-04-02T20:08:38.785Z,11.80
2023-04-02T20:10:42.344Z,11.76
2023-04-02T20:12:44.338Z,11.68
2023-04-02T20:14:46.356Z,11.73
2023-04-02T20:16:51.551Z,11.63
2023-04-02T20:18:53.693Z,11.59
2023-04-02T20:20:56.467Z,11.50
2023-04-02T20:22:58.492Z,11.54
2023-04-02T20:25:00.538Z,11.42
2023-04-02T20:27:02.572Z,11.39
2023-04-02T20:29:04.847Z,11.43
2023-04-02T20:31:11.300Z,11.41
2023-04-02T20:33:13.433Z,11.39
2023-04-02T20:35:15.715Z,11.32
2023-04-02T20:37:17.711Z,11.27
2023-04-02T20:39:20.442Z,11.20
2023-04-02T20:41:22.429Z,11.32
2023-04-02T20:43:28.565Z,11.30
2023-04-02T20:45:30.791Z,11.33
2023-04-02T20:47:35.080Z,11.09
2023-04-02T20:49:37.268Z,11.26
2023-04-02T20:51:39.326Z,11.28
2023-04-02T20:53:41.640Z,11.13
2023-04-02T20:55:46.032Z,11.19
2023-04-02T20:57:48.803Z,11.18
2023-04-02T20:59:50.943Z,11.16
2023-04-02T21:01:53.084Z,11.05
2023-04-02T21:03:58.689Z,10.94
2023-04-02T21:06:01.015Z,10.93
2023-04-02T21:08:06.193Z,10.89
2023-04-02T21:10:08.607Z,10.88
2023-04-02T21:12:11.700Z,10.82
2023-04-02T21:14:13.736Z,10.75
2023-04-02T21:16:17.172Z,10.69
2023-04-02T21:18:19.244Z,10.78
2023-04-02T21:20:21.327Z,10.64
2023-04-02T21:22:23.238Z,10.61
2023-04-02T21:24:25.328Z,10.63
2023-04-02T21:26:29.172Z,10.53
2023-04-02T21:28:31.315Z,10.55
2023-04-02T21:30:33.379Z,10.52
2023-04-02T21:32:35.378Z,10.41
2023-04-02T21:34:39.657Z,10.37
2023-04-02T21:36:44.541Z,10.36
2023-04-02T21:38:53.843Z,10.38
2023-04-02T21:40:55.869Z,10.32
2023-04-02T21:42:57.707Z,10.14
2023-04-02T21:44:59.491Z,10.21
2023-04-02T21:47:01.387Z,10.15
2023-04-02T21:49:04.329Z,10.18
2023-04-02T21:51:13.268Z,10.19
2023-04-02T21:53:15.260Z,10.19
2023-04-02T21:55:17.205Z,10.11
2023-04-02T21:57:19.197Z,10.02
2023-04-02T21:59:21.205Z,9.98
2023-04-02T22:01:27.855Z,9.95
2023-04-02T22:03:32.027Z,9.95
2023-04-02T22:05:34.339Z,9.89
2023-04-02T22:07:36.351Z,9.85
2023-04-02T22:09:38.223Z,9.82
2023-04-02T22:11:46.663Z,9.89
2023-04-02T22:13:49.704Z,9.73
2023-04-02T22:15:51.540Z,9.82
2023-04-02T22:17:53.318Z,9.76
2023-04-02T22:19:55.115Z,9.58
2023-04-02T22:21:56.999Z,9.66
2023-04-02T22:24:01.868Z,9.53
2023-04-02T22:26:05.537Z,9.53
2023-04-02T22:28:07.389Z,9.54
2023-04-02T22:30:09.830Z,9.52
2023-04-02T22:32:11.624Z,9.62
2023-04-02T22:34:13.926Z,9.61
2023-04-02T22:36:17.612Z,9.48
2023-04-02T22:38:19.824Z,9.55
2023-04-02T22:40:21.666Z,9.49
2023-04-02T22:42:23.497Z,9.54
2023-04-02T22:44:25.453Z,9.40
2023-04-02T22:46:28.131Z,9.49
2023-04-02T22:48:30.208Z,9.45
2023-04-02T22:50:32.083Z,9.34
2023-04-02T22:52:33.866Z,9.27
2023-04-02T22:54:35.783Z,9.34
2023-04-02T22:56:37.725Z,9.23
2023-04-02T22:58:40.320Z,9.31
2023-04-02T23:00:42.530Z,9.27
2023-04-02T23:02:44.799Z,9.16
2023-04-02T23:04:48.812Z,9.28
2023-04-02T23:06:50.649Z,9.29
2023-04-02T23:08:53.522Z,9.26
2023-04-02T23:11:01.615Z,9.31
2023-04-02T23:13:07.004Z,9.13
2023-04-02T23:15:10.089Z,9.25
2023-04-02T23:17:14.430Z,9.23
2023-04-02T23:19:16.269Z,9.13
2023-04-02T23:21:20.009Z,9.12
2023-04-02T23:23:22.005Z,9.02
2023-04-02T23:25:23.901Z,9.00
2023-04-02T23:27:25.905Z,8.98
2023-04-02T23:29:27.828Z,8.90
2023-04-02T23:31:30.198Z,8.92
2023-04-02T23:33:32.282Z,8.94
2023-04-02T23:35:34.380Z,8.95
2023-04-02T23:37:36.217Z,8.88
2023-04-02T23:39:38.035Z,8.90
2023-04-02T23:41:42.161Z,8.89
2023-04-02T23:43:44.212Z,8.95
2023-04-02T23:45:48.760Z,8.88
2023-04-02T23:47:50.781Z,8.95
2023-04-02T23:49:52.671Z,8.92
2023-04-02T23:51:54.962Z,8.98
2023-04-02T23:53:57.331Z,8.94
2023-04-02T23:55:59.562Z,8.98
2023-04-02T23:58:01.329Z,8.96
